createdAt,value
2017-08-20T00:00:21.251Z,91.20
2017-08-20T00:02:48.870Z,91.10
2017-08-20T00:05:17.235Z,91.30
2017-08-20T00:07:44.869Z,91.20
2017-08-20T00:10:12.475Z,91.50
2017-08-20T00:12:40.118Z,91.30
2017-08-20T00:15:08.498Z,91.20
2017-08-20T00:17:36.882Z,91.30
2017-08-20T00:20:04.514Z,91.10
2017-08-20T00:22:32.087Z,91.00
2017-08-20T00:24:59.703Z,90.90
2017-08-20T00:27:27.264Z,90.90
2017-08-20T00:29:54.843Z,91.10
2017-08-20T00:32:22.886Z,91.20
2017-08-20T00:34:50.443Z,90.80
2017-08-20T00:37:18.012Z,90.70
2017-08-20T00:39:45.703Z,90.80
2017-08-20T00:42:13.274Z,90.90
2017-08-20T00:44:40.847Z,91.00
2017-08-20T00:47:08.586Z,90.80
2017-08-20T00:49:36.267Z,90.80
2017-08-20T00:52:03.866Z,90.80
2017-08-20T00:54:31.617Z,90.70
2017-08-20T00:56:59.208Z,90.50
2017-08-20T00:59:26.784Z,90.60
2017-08-20T01:01:54.391Z,90.80
2017-08-20T01:04:22.010Z,90.50
2017-08-20T01:06:49.586Z,90.50
2017-08-20T01:09:17.203Z,90.60
2017-08-20T01:11:44.860Z,90.70
2017-08-20T01:14:12.437Z,90.70
2017-08-20T01:16:40.079Z,90.70
2017-08-20T01:19:07.770Z,90.40
2017-08-20T01:21:35.442Z,90.30
2017-08-20T01:24:03.060Z,90.70
2017-08-20T01:26:30.643Z,90.80
2017-08-20T01:28:58.260Z,90.80
2017-08-20T01:31:25.898Z,90.70
2017-08-20T01:33:53.530Z,91.10
2017-08-20T01:36:21.213Z,91.20
2017-08-20T01:38:49.656Z,91.50
2017-08-20T01:41:17.232Z,91.40
2017-08-20T01:43:44.838Z,91.60
2017-08-20T01:46:12.525Z,92.00
2017-08-20T01:48:40.169Z,92.00
2017-08-20T01:51:07.757Z,92.10
2017-08-20T01:53:35.415Z,92.40
2017-08-20T01:56:03.912Z,92.40
2017-08-20T01:58:31.502Z,92.40
2017-08-20T02:00:59.883Z,92.60
2017-08-20T02:03:27.492Z,92.60
2017-08-20T02:05:55.134Z,92.60
2017-08-20T02:08:23.064Z,92.80
2017-08-20T02:10:50.693Z,92.90
2017-08-20T02:13:18.362Z,93.00
2017-08-20T02:15:45.974Z,93.10
2017-08-20T02:18:13.605Z,93.20
2017-08-20T02:20:43.056Z,93.00
2017-08-20T02:23:10.673Z,93.00
2017-08-20T02:25:38.268Z,93.10
2017-08-20T02:28:05.908Z,93.30
2017-08-20T02:30:33.577Z,93.20
2017-08-20T02:33:01.150Z,93.40
2017-08-20T02:35:28.717Z,93.40
2017-08-20T02:37:56.395Z,93.30
2017-08-20T02:40:24.045Z,93.40
2017-08-20T02:42:51.646Z,93.40
2017-08-20T02:45:20.118Z,93.60
2017-08-20T02:47:48.473Z,93.80
2017-08-20T02:50:16.062Z,93.70
2017-08-20T02:52:44.442Z,93.60
2017-08-20T02:55:12.023Z,93.90
2017-08-20T02:57:39.600Z,93.60
2017-08-20T03:00:07.229Z,93.70
2017-08-20T03:02:34.862Z,93.80
2017-08-20T03:05:03.281Z,93.70
2017-08-20T03:07:30.901Z,93.70
2017-08-20T03:09:58.483Z,93.70
2017-08-20T03:12:26.065Z,93.80
2017-08-20T03:14:53.676Z,93.70
2017-08-20T03:17:21.264Z,93.70
2017-08-20T03:19:48.926Z,93.60
2017-08-20T03:22:16.615Z,93.80
2017-08-20T03:24:44.228Z,93.80
2017-08-20T03:27:12.593Z,94.00
2017-08-20T03:29:41.334Z,94.10
2017-08-20T03:32:08.935Z,93.90
2017-08-20T03:34:36.520Z,94.10
2017-08-20T03:37:04.228Z,94.10
2017-08-20T03:39:31.830Z,94.10
2017-08-20T03:42:00.166Z,94.00
2017-08-20T03:44:27.785Z,94.00
2017-08-20T03:46:55.398Z,94.00
2017-08-20T03:49:23.021Z,94.10
2017-08-20T03:51:50.627Z,94.00
2017-08-20T03:54:18.317Z,94.00
2017-08-20T03:56:46.002Z,93.90
2017-08-20T03:59:13.619Z,94.00
2017-08-20T04:01:41.952Z,94.20
2017-08-20T04:04:09.555Z,94.00
2017-08-20T04:06:37.174Z,93.90
2017-08-20T04:09:04.813Z,93.80
2017-08-20T04:11:32.427Z,94.10
2017-08-20T04:14:00.113Z,94.00
2017-08-20T04:16:27.743Z,93.90
2017-08-20T04:18:55.403Z,94.10
2017-08-20T04:21:23.031Z,94.10
2017-08-20T04:23:50.622Z,94.20
2017-08-20T04:26:18.203Z,94.10
2017-08-20T04:28:45.846Z,94.20
2017-08-20T04:31:13.526Z,94.10
2017-08-20T04:33:41.869Z,94.20
2017-08-20T04:36:09.536Z,94.20
2017-08-20T04:38:39.031Z,94.10
2017-08-20T04:41:06.626Z,94.10
2017-08-20T04:46:20.168Z,94.20
2017-08-20T04:48:48.549Z,94.10
2017-08-20T04:51:16.930Z,94.40
2017-08-20T04:53:45.306Z,94.30
2017-08-20T04:56:13.702Z,94.20
2017-08-20T04:58:41.293Z,94.20
2017-08-20T05:01:08.910Z,94.10
2017-08-20T05:03:36.524Z,94.30
2017-08-20T05:06:04.161Z,94.30
2017-08-20T05:08:31.775Z,94.10
2017-08-20T05:11:00.192Z,94.20
2017-08-20T05:13:27.784Z,94.20
2017-08-20T05:15:55.369Z,94.00
2017-08-20T05:18:23.069Z,93.80
2017-08-20T05:20:50.655Z,93.90
2017-08-20T05:23:18.233Z,94.00
2017-08-20T05:25:45.911Z,94.00
2017-08-20T05:28:13.495Z,93.90
2017-08-20T05:30:41.085Z,94.50
2017-08-20T05:33:08.713Z,94.00
2017-08-20T05:35:36.337Z,93.90
2017-08-20T05:38:03.909Z,93.70
2017-08-20T05:40:31.511Z,94.00
2017-08-20T05:42:59.119Z,93.80
2017-08-20T05:45:26.700Z,93.70
2017-08-20T05:47:54.307Z,93.70
2017-08-20T05:50:21.980Z,93.80
2017-08-20T05:52:49.561Z,94.10
2017-08-20T05:55:17.266Z,93.80
2017-08-20T05:57:44.879Z,93.60
2017-08-20T06:00:12.539Z,93.40
2017-08-20T06:02:40.197Z,93.20
2017-08-20T06:05:07.789Z,93.00
2017-08-20T06:07:35.413Z,92.60
2017-08-20T06:10:03.040Z,92.50
2017-08-20T06:12:30.660Z,91.80
2017-08-20T06:14:58.338Z,91.80
2017-08-20T06:17:26.016Z,91.70
2017-08-20T06:19:53.615Z,91.90
2017-08-20T06:22:21.230Z,91.50
2017-08-20T06:24:48.937Z,91.50
2017-08-20T06:27:16.529Z,91.30
2017-08-20T06:29:44.944Z,90.50
2017-08-20T06:32:12.559Z,90.40
2017-08-20T06:34:40.917Z,90.20
2017-08-20T06:37:09.270Z,90.40
2017-08-20T06:39:36.892Z,90.30
2017-08-20T06:42:04.572Z,90.20
2017-08-20T06:44:32.164Z,90.70
2017-08-20T06:46:59.810Z,88.20
2017-08-20T06:49:27.421Z,85.40
2017-08-20T06:51:55.117Z,85.70
2017-08-20T06:54:22.742Z,87.10
2017-08-20T06:56:50.367Z,86.90
2017-08-20T06:59:17.961Z,87.80
2017-08-20T07:01:45.599Z,88.40
2017-08-20T07:04:13.237Z,87.70
2017-08-20T07:06:40.905Z,86.50
2017-08-20T07:09:08.524Z,88.10
2017-08-20T07:11:36.120Z,87.20
2017-08-20T07:14:03.715Z,86.40
2017-08-20T07:16:31.379Z,87.50
2017-08-20T07:18:58.982Z,86.20
2017-08-20T07:21:26.676Z,86.80
2017-08-20T07:23:55.161Z,86.40
2017-08-20T07:26:22.770Z,86.40
2017-08-20T07:28:50.356Z,86.20
2017-08-20T07:31:18.023Z,84.40
2017-08-20T07:33:45.621Z,80.20
2017-08-20T07:36:13.231Z,73.40
2017-08-20T07:38:40.991Z,76.40
2017-08-20T07:41:08.657Z,77.20
2017-08-20T07:43:36.248Z,78.30
2017-08-20T07:46:03.929Z,80.10
2017-08-20T07:48:31.563Z,76.80
2017-08-20T07:50:59.915Z,77.30
2017-08-20T07:53:27.528Z,77.30
2017-08-20T07:55:55.163Z,79.10
2017-08-20T07:58:23.553Z,79.00
2017-08-20T08:00:51.187Z,79.00
2017-08-20T08:03:18.777Z,77.50
2017-08-20T08:05:46.395Z,73.30
2017-08-20T08:08:14.016Z,73.90
2017-08-20T08:10:41.600Z,74.10
2017-08-20T08:13:09.213Z,75.30
2017-08-20T08:15:36.842Z,75.10
2017-08-20T08:18:04.447Z,76.10
2017-08-20T08:20:32.055Z,76.30
2017-08-20T08:22:59.679Z,76.90
2017-08-20T08:25:27.261Z,73.00
2017-08-20T08:27:54.883Z,73.30
2017-08-20T08:30:22.552Z,72.70
2017-08-20T08:32:50.111Z,73.90
2017-08-20T08:35:17.693Z,74.10
2017-08-20T08:37:45.316Z,73.70
2017-08-20T08:40:12.898Z,74.70
2017-08-20T08:42:40.493Z,74.50
2017-08-20T08:45:08.181Z,74.70
2017-08-20T08:47:36.541Z,75.10
2017-08-20T08:50:04.124Z,75.00
2017-08-20T08:52:31.746Z,74.20
2017-08-20T08:54:59.446Z,74.90
2017-08-20T08:57:27.046Z,74.30
2017-08-20T08:59:54.681Z,74.40
2017-08-20T09:02:22.393Z,74.60
2017-08-20T09:04:50.110Z,73.30
2017-08-20T09:07:17.720Z,72.30
2017-08-20T09:09:45.344Z,71.40
2017-08-20T09:12:12.911Z,73.70
2017-08-20T09:14:41.438Z,71.90
2017-08-20T09:17:14.723Z,70.00
2017-08-20T09:19:42.738Z,70.30
2017-08-20T09:22:10.327Z,72.60
2017-08-20T09:24:38.000Z,70.20
2017-08-20T09:27:06.446Z,70.00
2017-08-20T09:29:34.033Z,70.00
2017-08-20T09:32:01.834Z,70.30
2017-08-20T09:34:30.224Z,68.00
2017-08-20T09:36:57.871Z,68.20
2017-08-20T09:39:26.217Z,65.20
2017-08-20T09:41:53.840Z,65.10
2017-08-20T09:44:21.442Z,65.60
2017-08-20T09:46:49.151Z,65.30
2017-08-20T09:49:16.826Z,65.40
2017-08-20T09:51:53.536Z,63.60
2017-08-20T09:54:29.982Z,63.50
2017-08-20T09:56:57.692Z,64.40
2017-08-20T09:59:25.597Z,65.40
2017-08-20T10:01:53.280Z,68.50
2017-08-20T10:04:20.916Z,66.90
2017-08-20T10:06:48.639Z,63.00
2017-08-20T10:09:17.041Z,65.00
2017-08-20T10:11:44.627Z,64.90
2017-08-20T10:14:13.863Z,63.10
2017-08-20T10:16:42.276Z,58.60
2017-08-20T10:19:09.848Z,58.60
2017-08-20T10:21:37.429Z,59.70
2017-08-20T10:24:06.076Z,58.20
2017-08-20T10:26:33.738Z,57.70
2017-08-20T10:29:01.309Z,61.20
2017-08-20T10:31:28.931Z,64.10
2017-08-20T10:33:56.543Z,66.90
2017-08-20T10:36:24.111Z,66.10
2017-08-20T10:38:51.786Z,68.90
2017-08-20T10:41:19.421Z,66.50
2017-08-20T10:43:47.085Z,66.10
2017-08-20T10:46:15.507Z,59.00
2017-08-20T10:48:43.871Z,58.50
2017-08-20T10:51:11.473Z,58.50
2017-08-20T10:53:39.083Z,61.40
2017-08-20T10:56:06.674Z,57.70
2017-08-20T10:58:34.279Z,54.30
2017-08-20T11:01:01.965Z,55.00
2017-08-20T11:03:29.557Z,58.90
2017-08-20T11:05:57.235Z,59.70
2017-08-20T11:08:24.913Z,58.30
2017-08-20T11:10:52.993Z,59.60
2017-08-20T11:13:20.617Z,64.30
2017-08-20T11:15:48.321Z,63.90
2017-08-20T11:18:16.028Z,64.70
2017-08-20T11:20:44.961Z,62.40
2017-08-20T11:23:12.683Z,62.40
2017-08-20T11:25:40.282Z,61.50
2017-08-20T11:28:07.923Z,63.40
2017-08-20T11:30:35.556Z,65.20
2017-08-20T11:33:03.247Z,62.10
2017-08-20T11:35:30.880Z,62.00
2017-08-20T11:37:59.384Z,61.10
2017-08-20T11:40:31.682Z,61.00
2017-08-20T11:43:03.239Z,58.80
2017-08-20T11:45:31.735Z,60.20
2017-08-20T11:47:59.318Z,59.40
2017-08-20T11:50:27.739Z,61.70
2017-08-20T11:52:55.385Z,61.60
2017-08-20T11:55:22.967Z,60.90
2017-08-20T11:57:50.588Z,60.40
2017-08-20T12:00:18.442Z,55.90
2017-08-20T12:02:47.052Z,57.00
2017-08-20T12:05:14.841Z,57.00
2017-08-20T12:07:42.431Z,58.10
2017-08-20T12:10:10.146Z,58.70
2017-08-20T12:12:37.874Z,60.20
2017-08-20T12:15:05.477Z,60.40
2017-08-20T12:17:33.192Z,60.60
2017-08-20T12:20:00.930Z,61.30
2017-08-20T12:22:28.526Z,63.10
2017-08-20T12:24:56.096Z,65.70
2017-08-20T12:27:24.817Z,68.40
2017-08-20T12:29:52.579Z,68.40
2017-08-20T12:32:20.376Z,69.70
2017-08-20T12:34:48.050Z,69.90
2017-08-20T12:37:15.956Z,72.60
2017-08-20T12:39:43.683Z,70.60
2017-08-20T12:42:13.115Z,66.80
2017-08-20T12:44:48.142Z,66.80
2017-08-20T12:47:20.610Z,66.70
2017-08-20T12:49:53.598Z,65.30
2017-08-20T12:52:21.692Z,62.90
2017-08-20T12:54:49.288Z,61.70
2017-08-20T12:57:17.653Z,58.20
2017-08-20T12:59:46.268Z,60.40
2017-08-20T13:02:14.930Z,60.10
2017-08-20T13:04:42.658Z,60.00
2017-08-20T13:07:10.269Z,61.70
2017-08-20T13:09:38.647Z,59.30
2017-08-20T13:12:06.211Z,59.20
2017-08-20T13:14:33.881Z,60.40
2017-08-20T13:17:01.461Z,59.50
2017-08-20T13:19:29.167Z,61.50
2017-08-20T13:21:56.801Z,57.80
2017-08-20T13:24:37.221Z,59.60
2017-08-20T13:27:11.426Z,60.30
2017-08-20T13:29:40.288Z,58.80
2017-08-20T13:32:07.895Z,58.70
2017-08-20T13:34:35.555Z,59.50
2017-08-20T13:37:03.198Z,61.30
2017-08-20T13:39:30.844Z,61.60
2017-08-20T13:41:59.431Z,63.10
2017-08-20T13:44:27.852Z,62.00
2017-08-20T13:46:58.866Z,62.00
2017-08-20T13:49:32.148Z,62.80
2017-08-20T13:51:59.818Z,61.80
2017-08-20T13:54:27.391Z,62.40
2017-08-20T13:56:55.025Z,64.10
2017-08-20T13:59:23.377Z,64.50
2017-08-20T14:01:51.075Z,64.40
2017-08-20T14:04:18.738Z,65.70
2017-08-20T14:06:46.367Z,65.00
2017-08-20T14:09:14.853Z,64.20
2017-08-20T14:11:43.457Z,65.50
2017-08-20T14:14:11.949Z,65.30
2017-08-20T14:16:39.558Z,65.30
2017-08-20T14:19:07.161Z,64.50
2017-08-20T14:21:34.755Z,64.90
2017-08-20T14:24:02.325Z,60.40
2017-08-20T14:26:29.959Z,60.00
2017-08-20T14:28:57.551Z,61.20
2017-08-20T14:31:25.231Z,59.30
2017-08-20T14:33:52.853Z,59.70
2017-08-20T14:36:20.448Z,57.80
2017-08-20T14:38:48.056Z,58.50
2017-08-20T14:41:15.663Z,57.30
2017-08-20T14:43:43.267Z,57.40
2017-08-20T14:46:10.950Z,58.20
2017-08-20T14:48:38.745Z,59.50
2017-08-20T14:51:06.363Z,60.30
2017-08-20T14:53:34.142Z,59.50
2017-08-20T14:56:01.923Z,60.70
2017-08-20T14:58:29.578Z,59.10
2017-08-20T15:00:57.508Z,59.70
2017-08-20T15:03:25.135Z,57.00
2017-08-20T15:05:53.605Z,57.90
2017-08-20T15:08:21.984Z,59.30
2017-08-20T15:10:50.386Z,59.50
2017-08-20T15:13:17.985Z,59.90
2017-08-20T15:15:45.583Z,60.60
2017-08-20T15:18:13.969Z,62.00
2017-08-20T15:20:42.366Z,62.40
2017-08-20T15:23:10.075Z,62.30
2017-08-20T15:25:37.722Z,62.30
2017-08-20T15:28:05.346Z,62.50
2017-08-20T15:30:32.932Z,65.80
2017-08-20T15:33:00.573Z,63.40
2017-08-20T15:35:28.165Z,62.80
2017-08-20T15:37:55.812Z,64.20
2017-08-20T15:40:23.481Z,64.80
2017-08-20T15:42:51.066Z,63.70
2017-08-20T15:45:18.682Z,64.90
2017-08-20T15:47:49.593Z,62.30
2017-08-20T15:50:17.221Z,63.10
2017-08-20T15:52:44.810Z,63.30
2017-08-20T15:55:13.219Z,63.90
2017-08-20T15:57:40.911Z,63.90
2017-08-20T16:00:08.513Z,64.30
2017-08-20T16:02:36.141Z,64.40
2017-08-20T16:05:03.726Z,64.10
2017-08-20T16:07:32.103Z,65.30
2017-08-20T16:10:00.494Z,66.20
2017-08-20T16:12:28.085Z,66.20
2017-08-20T16:14:55.720Z,66.00
2017-08-20T16:17:23.356Z,66.20
2017-08-20T16:19:50.965Z,66.80
2017-08-20T16:22:18.535Z,65.60
2017-08-20T16:24:46.203Z,64.10
2017-08-20T16:27:13.791Z,65.00
2017-08-20T16:29:42.144Z,63.90
2017-08-20T16:32:09.833Z,63.70
2017-08-20T16:34:38.213Z,62.30
2017-08-20T16:37:05.786Z,62.30
2017-08-20T16:39:33.405Z,63.10
2017-08-20T16:42:01.062Z,62.90
2017-08-20T16:44:28.665Z,64.60
2017-08-20T16:46:56.278Z,64.70
2017-08-20T16:49:24.121Z,64.40
2017-08-20T16:51:52.072Z,65.60
2017-08-20T16:54:19.908Z,65.90
2017-08-20T16:56:47.689Z,67.10
2017-08-20T16:59:15.341Z,65.50
2017-08-20T17:01:42.950Z,65.80
2017-08-20T17:04:10.538Z,65.60
2017-08-20T17:06:38.222Z,65.30
2017-08-20T17:09:05.834Z,65.30
2017-08-20T17:11:33.419Z,65.60
2017-08-20T17:14:00.988Z,65.40
2017-08-20T17:16:29.461Z,64.90
2017-08-20T17:18:57.048Z,64.80
2017-08-20T17:21:24.662Z,65.00
2017-08-20T17:23:52.284Z,65.90
2017-08-20T17:26:19.856Z,65.30
2017-08-20T17:28:47.445Z,64.60
2017-08-20T17:31:15.139Z,63.90
2017-08-20T17:33:42.722Z,64.50
2017-08-20T17:36:10.314Z,64.90
2017-08-20T17:38:37.979Z,64.80
2017-08-20T17:41:05.590Z,66.40
2017-08-20T17:43:33.186Z,68.20
2017-08-20T17:46:00.868Z,69.70
2017-08-20T17:48:28.505Z,70.00
2017-08-20T17:50:56.086Z,69.60
2017-08-20T17:53:23.753Z,70.60
2017-08-20T17:55:52.158Z,71.30
2017-08-20T17:58:19.793Z,71.20
2017-08-20T18:00:47.419Z,70.60
2017-08-20T18:03:15.019Z,68.90
2017-08-20T18:05:43.513Z,68.90
2017-08-20T18:08:11.945Z,67.50
2017-08-20T18:10:39.539Z,67.40
2017-08-20T18:13:07.286Z,68.10
2017-08-20T18:15:35.005Z,68.50
2017-08-20T18:18:02.795Z,68.00
2017-08-20T18:20:30.414Z,69.00
2017-08-20T18:22:58.145Z,69.40
2017-08-20T18:25:25.791Z,67.20
2017-08-20T18:27:53.359Z,68.50
2017-08-20T18:30:20.988Z,68.10
2017-08-20T18:32:48.583Z,70.30
2017-08-20T18:35:16.191Z,68.90
2017-08-20T18:37:43.825Z,68.20
2017-08-20T18:40:11.404Z,69.30
2017-08-20T18:42:39.021Z,71.40
2017-08-20T18:45:07.384Z,72.50
2017-08-20T18:47:35.031Z,72.10
2017-08-20T18:50:02.601Z,73.30
2017-08-20T18:52:30.226Z,73.00
2017-08-20T18:54:57.832Z,73.60
2017-08-20T18:57:25.401Z,74.70
2017-08-20T18:59:53.392Z,74.20
2017-08-20T19:02:21.002Z,75.00
2017-08-20T19:04:48.693Z,75.60
2017-08-20T19:07:16.358Z,76.50
2017-08-20T19:09:43.948Z,76.80
2017-08-20T19:12:11.618Z,77.40
2017-08-20T19:14:39.231Z,78.30
2017-08-20T19:17:07.638Z,78.10
2017-08-20T19:19:35.344Z,78.10
2017-08-20T19:22:02.990Z,79.20
2017-08-20T19:24:30.626Z,79.00
2017-08-20T19:26:58.226Z,79.20
2017-08-20T19:29:25.870Z,78.20
2017-08-20T19:31:53.444Z,79.00
2017-08-20T19:34:21.091Z,77.90
2017-08-20T19:36:48.817Z,78.60
2017-08-20T19:39:16.477Z,79.20
2017-08-20T19:41:44.079Z,78.40
2017-08-20T19:44:11.777Z,76.20
2017-08-20T19:46:39.412Z,77.80
2017-08-20T19:49:07.042Z,79.90
2017-08-20T19:51:34.649Z,80.20
2017-08-20T19:54:02.299Z,81.10
2017-08-20T19:56:30.663Z,80.80
2017-08-20T19:58:58.286Z,80.70
2017-08-20T20:01:25.909Z,81.60
2017-08-20T20:03:54.276Z,82.60
2017-08-20T20:06:21.887Z,82.50
2017-08-20T20:08:49.491Z,82.80
2017-08-20T20:11:17.132Z,83.60
2017-08-20T20:13:44.852Z,84.20
2017-08-20T20:16:12.441Z,84.60
2017-08-20T20:18:40.126Z,85.20
2017-08-20T20:21:07.825Z,85.10
2017-08-20T20:23:35.429Z,85.80
2017-08-20T20:26:03.092Z,85.70
2017-08-20T20:28:30.769Z,85.90
2017-08-20T20:30:58.394Z,86.50
2017-08-20T20:33:25.988Z,86.40
2017-08-20T20:35:53.692Z,87.10
2017-08-20T20:38:21.291Z,86.80
2017-08-20T20:40:48.897Z,85.90
2017-08-20T20:43:16.585Z,86.50
2017-08-20T20:45:44.246Z,86.60
2017-08-20T20:48:11.842Z,86.10
2017-08-20T20:50:39.481Z,85.00
2017-08-20T20:53:07.090Z,85.50
2017-08-20T20:55:34.741Z,85.10
2017-08-20T20:58:02.350Z,84.70
2017-08-20T21:00:29.968Z,85.50
2017-08-20T21:02:57.594Z,84.70
2017-08-20T21:05:25.220Z,83.90
2017-08-20T21:07:52.858Z,84.80
2017-08-20T21:10:21.243Z,86.50
2017-08-20T21:12:48.939Z,86.40
2017-08-20T21:15:16.513Z,85.40
2017-08-20T21:17:44.210Z,86.90
2017-08-20T21:20:12.595Z,87.70
2017-08-20T21:22:40.948Z,86.50
2017-08-20T21:25:08.550Z,86.50
2017-08-20T21:27:36.157Z,87.80
2017-08-20T21:30:03.781Z,87.70
2017-08-20T21:32:31.741Z,87.90
2017-08-20T21:34:59.437Z,89.00
2017-08-20T21:37:27.052Z,88.50
2017-08-20T21:39:54.660Z,88.50
2017-08-20T21:42:22.344Z,85.50
2017-08-20T21:44:49.947Z,87.60
2017-08-20T21:47:17.551Z,89.20
2017-08-20T21:49:45.233Z,89.20
2017-08-20T21:52:13.654Z,90.00
2017-08-20T21:54:41.325Z,90.00
2017-08-20T21:57:08.952Z,89.60
2017-08-20T21:59:36.640Z,89.10
2017-08-20T22:02:04.258Z,88.40
2017-08-20T22:04:32.662Z,87.30
2017-08-20T22:07:00.311Z,87.30
2017-08-20T22:09:27.999Z,86.80
2017-08-20T22:11:55.632Z,88.80
2017-08-20T22:14:23.271Z,88.80
2017-08-20T22:16:50.958Z,89.20
2017-08-20T22:19:18.606Z,89.00
2017-08-20T22:21:46.196Z,88.10
2017-08-20T22:24:13.973Z,88.30
2017-08-20T22:26:41.650Z,88.60
2017-08-20T22:29:09.274Z,89.60
2017-08-20T22:31:36.927Z,88.40
2017-08-20T22:34:04.546Z,89.40
2017-08-20T22:36:32.149Z,87.50
2017-08-20T22:38:59.793Z,89.30
2017-08-20T22:41:27.451Z,89.80
2017-08-20T22:43:55.134Z,90.00
2017-08-20T22:46:22.776Z,90.00
2017-08-20T22:48:50.433Z,89.10
2017-08-20T22:51:18.033Z,90.20
2017-08-20T22:53:45.644Z,90.30
2017-08-20T22:56:14.029Z,90.70
2017-08-20T22:58:41.655Z,90.40
2017-08-20T23:01:09.222Z,90.30
2017-08-20T23:03:36.836Z,90.40
2017-08-20T23:06:04.463Z,90.80
2017-08-20T23:08:32.812Z,91.30
2017-08-20T23:11:00.416Z,91.20
2017-08-20T23:13:28.771Z,91.20
2017-08-20T23:15:56.375Z,91.20
2017-08-20T23:18:24.025Z,91.30
2017-08-20T23:20:51.665Z,91.30
2017-08-20T23:23:19.249Z,91.60
2017-08-20T23:25:46.901Z,91.30
2017-08-20T23:28:14.528Z,91.40
2017-08-20T23:30:42.116Z,91.50
2017-08-20T23:33:09.750Z,92.10
2017-08-20T23:35:37.333Z,92.10
2017-08-20T23:38:04.928Z,92.10
2017-08-20T23:40:32.537Z,92.10
2017-08-20T23:43:00.892Z,92.20
2017-08-20T23:45:28.476Z,92.20
2017-08-20T23:47:56.088Z,92.10
2017-08-20T23:50:23.648Z,92.10
2017-08-20T23:52:51.231Z,92.50
2017-08-20T23:55:18.916Z,92.70
2017-08-20T23:57:47.248Z,92.50
